Airfield :
LOGIN :

Register | Disclaimer

   EN    FR    IT 

 










Legend :    VFR   Marginal VFR   IFR   Intensive IFR   Very Intensive IFR
Visi :
Ceiling :
>= 8 km
>= 3000ft
5 to 8 km
1000 to 3000 ft
1500m to 5 km
500 to 1000 ft
800 to 1500m
200 to 500 ft
< 800m
< 200 ft
Symbols :   Thunderstorms  Fog  Heavy snow  Heavy precipitations  Wind > 20 kt
SIGMETs :     Misc.  Thunderstorms  Icing  Turbulence  Mountain Waves  Volcanic Ashes






- Airport Elevation : 364 ft


LFAQ - Albert Bray

CURRENT METAR :
  • 282230Z AUTO 24016KT CAVOK 10/08 Q1010

EXPIRED METARs :
  • 282200Z AUTO 23013KT CAVOK 10/08 Q1010
  • 282130Z AUTO 24016KT 9999 FEW020 SCT120 10/08 Q1010
  • 282100Z AUTO 24017KT 9999 BKN021 OVC098 10/09 Q1009
  • 282030Z AUTO 24017KT 9999 SCT025/// BKN035/// BKN052/// ///TCU 10/08 Q1009
  • 282000Z AUTO 24017KT 9999 ///CB 10/08 Q1009

TAF TAF LFAQ
Valid from the 28 at 15:00 until the 29 at 00:00 UTC


281400Z 2815/2824 23015G25KT 9999 BKN025
TEMPO 2815/2819 23020G35KT 3000 SHRA BKN015CB



MET'MAP, your aeronautical weather chart ! - Copyright ORBIFLY December 2007 - Disclaimer

ORBIFLY MET'MAP TEAM :

Programming & Development : Alexandra Zaïnal
Concept & original design : Baudouin d'Aumeries
Assistance for programming : Marc-Olivier Méhu
Technical & hardware support : Manuel Goepfert

Contact : metmap@orbifly.com




SOURCES & CREDITS :

   NOAA